Time;durP1;ratioP1;P1;durP2;ratioP2;P2;SDS_P1;SDS_P2;PMS_P1;PMS_P2;Temp;Humidity;BMP_temperature;BMP_pressure;BME280_temperature;BME280_humidity;BME280_pressure;Samples;Min_cycle;Max_cycle;Signal;HPM_P1;HPM_P2
2021/09/23 00:00:52;;;;;;;6.68;5.05;;;;;;;9.97;74.16;99712.34;2620552;54;20045;-66
2021/09/23 00:06:16;;;;;;;7.00;5.25;;;;;;;9.93;74.24;99703.09;2622334;31;20500;-68
2021/09/23 00:08:47;;;;;;;8.18;5.22;;;;;;;9.86;73.78;99704.75;2621593;54;20034;-68
2021/09/23 00:11:17;;;;;;;7.35;5.40;;;;;;;9.78;74.06;99712.66;2621972;54;20061;-68
2021/09/23 00:13:47;;;;;;;5.65;4.80;;;;;;;9.74;74.58;99716.63;2621000;54;20026;-67
2021/09/23 00:16:20;;;;;;;8.77;4.63;;;;;;;9.70;74.35;99715.31;2621572;39;20457;-67
2021/09/23 00:18:54;;;;;;;9.63;4.82;;;;;;;9.72;74.96;99713.34;2622229;54;20023;-68
2021/09/23 00:21:24;;;;;;;6.15;4.85;;;;;;;9.74;74.91;99714.81;2622097;47;20027;-68
2021/09/23 00:23:54;;;;;;;4.82;4.32;;;;;;;9.75;74.18;99715.63;2623215;54;20031;-68
2021/09/23 00:26:24;;;;;;;5.97;4.40;;;;;;;9.76;74.31;99717.31;2622491;54;20110;-67
2021/09/23 00:28:54;;;;;;;5.82;4.07;;;;;;;9.79;74.27;99707.22;2622136;54;20094;-68
2021/09/23 00:31:24;;;;;;;6.32;4.32;;;;;;;9.86;74.51;99710.84;2620499;54;20026;-68
2021/09/23 00:33:56;;;;;;;5.18;4.68;;;;;;;9.90;73.88;99696.31;2622246;46;20086;-67
2021/09/23 00:36:26;;;;;;;7.15;4.55;;;;;;;9.88;73.82;99706.22;2621154;54;20037;-68
2021/09/23 00:38:56;;;;;;;6.95;4.50;;;;;;;9.90;73.56;99712.16;2622545;54;20033;-68
2021/09/23 00:41:26;;;;;;;6.00;4.30;;;;;;;9.80;73.24;99714.16;2622433;47;20049;-68
2021/09/23 00:43:56;;;;;;;6.57;4.60;;;;;;;9.67;73.52;99705.88;2622308;51;20656;-68
2021/09/23 00:46:27;;;;;;;5.75;4.55;;;;;;;9.71;74.07;99707.22;2623483;54;20129;-68
2021/09/23 00:49:02;;;;;;;5.82;4.57;;;;;;;9.72;73.34;99702.78;2622964;47;20045;-68
2021/09/23 00:51:32;;;;;;;6.40;4.38;;;;;;;9.66;73.54;99701.59;2622711;54;20055;-68
2021/09/23 00:54:03;;;;;;;5.20;4.22;;;;;;;9.69;74.04;99703.91;2622698;39;20438;-68
2021/09/23 00:56:33;;;;;;;9.63;4.50;;;;;;;9.75;73.53;99703.25;2622491;54;20033;-68
2021/09/23 00:59:03;;;;;;;8.68;5.00;;;;;;;9.74;73.67;99695.50;2622556;47;20030;-68
2021/09/23 01:01:34;;;;;;;5.65;5.00;;;;;;;9.63;73.60;99689.56;2621247;47;20060;-69
2021/09/23 01:04:08;;;;;;;6.60;4.70;;;;;;;9.53;73.45;99691.53;2621534;51;20035;-68
2021/09/23 01:06:40;;;;;;;6.32;4.45;;;;;;;9.42;73.41;99695.31;2622886;47;20074;-68
2021/09/23 01:09:10;;;;;;;5.93;5.00;;;;;;;9.31;73.92;99684.28;2622389;47;20033;-68
2021/09/23 01:11:40;;;;;;;7.95;5.15;;;;;;;9.26;74.27;99690.00;2622683;54;20045;-68
2021/09/23 01:14:10;;;;;;;6.88;4.75;;;;;;;9.22;74.34;99685.22;2621944;47;20034;-67
2021/09/23 01:16:49;;;;;;;5.93;4.75;;;;;;;9.22;74.21;99687.84;2622192;47;20533;-67
2021/09/23 01:19:45;;;;;;;7.75;5.10;;;;;;;9.20;74.51;99685.41;2622869;47;20026;-66
2021/09/23 01:22:19;;;;;;;6.82;5.22;;;;;;;9.15;74.34;99685.88;2623588;47;20031;-67
2021/09/23 01:25:16;;;;;;;6.78;4.65;;;;;;;9.07;74.59;99687.69;2623918;47;20072;-66
2021/09/23 01:27:47;;;;;;;6.28;4.50;;;;;;;9.04;74.62;99675.63;2624311;54;20129;-66
2021/09/23 01:30:28;;;;;;;11.50;5.15;;;;;;;9.04;75.09;99670.34;2624194;47;20034;-66
2021/09/23 01:32:57;;;;;;;4.88;4.38;;;;;;;9.04;74.87;99662.44;2624431;51;20026;-67
2021/09/23 01:35:27;;;;;;;5.72;4.75;;;;;;;9.06;74.78;99667.53;2623953;54;20026;-67
2021/09/23 01:38:00;;;;;;;5.97;4.25;;;;;;;9.08;74.86;99671.69;2623839;51;20026;-68
2021/09/23 01:40:30;;;;;;;6.35;4.55;;;;;;;9.05;74.69;99666.72;2624703;54;20534;-67
2021/09/23 01:43:01;;;;;;;5.32;4.22;;;;;;;8.95;74.66;99667.88;2624753;54;20098;-66
2021/09/23 01:45:32;;;;;;;9.35;5.47;;;;;;;8.96;75.28;99664.25;2624315;39;20441;-67
2021/09/23 01:48:02;;;;;;;28.58;10.77;;;;;;;9.00;74.75;99652.38;2623829;47;20045;-66
2021/09/23 01:50:34;;;;;;;23.65;10.73;;;;;;;9.03;74.96;99649.44;2624175;51;20023;-68
2021/09/23 01:53:07;;;;;;;19.20;8.35;;;;;;;9.05;74.61;99647.44;2623835;47;20027;-68
2021/09/23 01:55:37;;;;;;;19.20;8.38;;;;;;;9.10;74.39;99638.06;2624291;47;20034;-68
2021/09/23 01:58:07;;;;;;;16.33;7.00;;;;;;;9.12;74.42;99640.53;2623316;47;20038;-68
2021/09/23 02:00:41;;;;;;;8.38;5.53;;;;;;;9.08;74.30;99637.41;2624209;47;20546;-67
2021/09/23 02:03:12;;;;;;;8.00;5.35;;;;;;;9.10;74.16;99626.66;2624583;47;20058;-67
2021/09/23 02:06:01;;;;;;;7.18;4.78;;;;;;;9.06;74.17;99625.34;2625225;39;20527;-68
2021/09/23 02:08:35;;;;;;;7.00;4.97;;;;;;;9.05;73.83;99629.78;2624351;47;20555;-68
2021/09/23 02:11:05;;;;;;;6.13;4.90;;;;;;;8.92;73.67;99624.19;2624118;47;20019;-67
2021/09/23 02:13:43;;;;;;;4.90;4.38;;;;;;;8.64;74.03;99618.34;2623533;47;20027;-68
2021/09/23 02:16:15;;;;;;;6.93;4.10;;;;;;;8.57;74.92;99617.31;2623796;54;20051;-66
2021/09/23 02:18:45;;;;;;;6.28;4.47;;;;;;;8.66;74.76;99619.84;2623769;54;20026;-68
2021/09/23 02:21:15;;;;;;;5.78;4.35;;;;;;;8.71;74.97;99614.09;2623506;54;20031;-68
2021/09/23 02:23:51;;;;;;;5.93;4.45;;;;;;;8.80;74.86;99610.47;2623087;54;20030;-68
2021/09/23 02:26:21;;;;;;;6.95;4.93;;;;;;;8.81;74.09;99606.84;2624130;47;20035;-68
2021/09/23 02:28:51;;;;;;;5.20;4.55;;;;;;;8.72;73.90;99607.81;2623827;47;20038;-67
2021/09/23 02:31:20;;;;;;;6.07;4.35;;;;;;;8.64;74.14;99598.06;2624062;54;20037;-69
2021/09/23 02:33:50;;;;;;;4.90;4.38;;;;;;;8.62;74.61;99601.88;2624360;54;20034;-68
2021/09/23 02:36:20;;;;;;;7.90;4.97;;;;;;;8.64;74.42;99597.25;2624565;54;20045;-68
2021/09/23 02:38:52;;;;;;;6.45;4.20;;;;;;;8.64;74.11;99595.44;2623467;54;20027;-69
2021/09/23 02:41:27;;;;;;;7.68;4.47;;;;;;;8.63;74.25;99590.34;2623372;39;20419;-69
2021/09/23 02:43:57;;;;;;;6.22;4.72;;;;;;;8.53;74.21;99590.47;2622535;39;20626;-69
2021/09/23 02:46:27;;;;;;;5.47;4.40;;;;;;;8.50;74.51;99584.69;2623399;51;20041;-69
2021/09/23 02:48:57;;;;;;;5.93;4.35;;;;;;;8.52;74.54;99583.53;2623987;54;20038;-67
2021/09/23 02:51:27;;;;;;;5.75;4.13;;;;;;;8.54;74.40;99573.69;2624197;47;20041;-67
2021/09/23 02:54:00;;;;;;;7.03;4.50;;;;;;;8.59;74.73;99573.19;2624107;47;20050;-68
2021/09/23 02:56:30;;;;;;;6.53;4.60;;;;;;;8.63;73.66;99574.53;2623855;47;20042;-68
2021/09/23 02:59:00;;;;;;;6.50;4.50;;;;;;;8.54;73.88;99567.59;2622938;54;20060;-67
2021/09/23 03:01:29;;;;;;;5.72;4.45;;;;;;;8.40;74.16;99559.28;2622132;47;20074;-68
2021/09/23 03:03:59;;;;;;;6.03;5.10;;;;;;;8.31;74.11;99556.78;2621346;46;20036;-67
2021/09/23 03:06:29;;;;;;;6.57;4.85;;;;;;;8.22;74.00;99557.72;2622943;47;20034;-67
2021/09/23 03:09:02;;;;;;;5.50;4.70;;;;;;;8.21;74.36;99556.91;2618682;54;20042;-62
2021/09/23 03:11:33;;;;;;;5.38;4.68;;;;;;;8.25;74.09;99560.06;2618117;47;20027;-63
2021/09/23 03:14:02;;;;;;;4.85;4.28;;;;;;;8.19;73.97;99551.78;2617869;47;20126;-63
2021/09/23 03:16:32;;;;;;;8.73;4.35;;;;;;;8.19;74.26;99549.16;2618096;54;20034;-63
2021/09/23 03:19:02;;;;;;;6.47;3.80;;;;;;;8.23;74.29;99535.66;2618321;54;20038;-63
2021/09/23 03:21:32;;;;;;;4.50;4.05;;;;;;;8.29;74.49;99529.78;2618054;46;20111;-63
2021/09/23 03:24:04;;;;;;;6.40;4.75;;;;;;;8.29;74.26;99527.97;2618436;54;20182;-63
2021/09/23 03:26:35;;;;;;;5.78;4.40;;;;;;;8.26;74.19;99515.09;2618468;39;20442;-63
2021/09/23 03:29:06;;;;;;;5.80;4.30;;;;;;;8.22;73.92;99511.16;2617914;54;20034;-63
2021/09/23 03:31:37;;;;;;;22.73;9.35;;;;;;;8.21;74.11;99504.22;2617997;54;20090;-63
2021/09/23 03:34:07;;;;;;;16.65;7.80;;;;;;;8.20;74.11;99497.28;2618204;54;20569;-63
2021/09/23 03:36:36;;;;;;;8.85;5.28;;;;;;;8.19;74.39;99490.38;2618599;54;20038;-63
2021/09/23 03:39:09;;;;;;;9.13;5.82;;;;;;;8.20;74.24;99478.84;2617862;54;20026;-63
2021/09/23 03:41:39;;;;;;;6.53;5.50;;;;;;;8.15;74.27;99476.72;2618664;54;20134;-63
2021/09/23 03:44:09;;;;;;;6.00;4.35;;;;;;;8.12;74.02;99476.19;2618232;54;20035;-63
2021/09/23 03:46:38;;;;;;;6.13;4.75;;;;;;;8.04;74.34;99476.19;2618355;39;20462;-64
2021/09/23 03:49:08;;;;;;;4.47;4.07;;;;;;;7.95;74.18;99473.50;2618150;47;20082;-63
2021/09/23 03:51:38;;;;;;;5.47;4.70;;;;;;;7.88;74.22;99469.91;2618276;54;20026;-63
2021/09/23 03:54:11;;;;;;;5.38;4.75;;;;;;;7.84;74.36;99473.81;2617672;47;20030;-63
2021/09/23 03:56:41;;;;;;;6.97;4.72;;;;;;;7.76;74.67;99489.59;2618183;54;20034;-62
2021/09/23 03:59:10;;;;;;;5.93;4.43;;;;;;;7.77;75.10;99483.34;2617948;54;20022;-63
2021/09/23 04:01:40;;;;;;;7.50;4.68;;;;;;;7.83;75.11;99477.41;2618149;47;20026;-63
2021/09/23 04:04:14;;;;;;;5.68;4.50;;;;;;;7.92;75.16;99471.22;2617883;54;20566;-63
2021/09/23 04:06:47;;;;;;;6.53;4.80;;;;;;;8.07;75.19;99463.53;2618248;46;20130;-62
2021/09/23 04:09:21;;;;;;;6.50;4.35;;;;;;;8.16;74.61;99465.22;2618199;47;20030;-62
2021/09/23 04:11:51;;;;;;;6.82;4.50;;;;;;;8.24;74.38;99453.84;2618137;47;20081;-62
2021/09/23 04:14:25;;;;;;;6.93;4.95;;;;;;;8.28;74.00;99449.91;2617696;54;20026;-62
2021/09/23 04:16:55;;;;;;;5.55;4.22;;;;;;;8.24;73.94;99459.13;2617881;54;20130;-62
2021/09/23 04:19:25;;;;;;;8.48;6.38;;;;;;;8.19;73.84;99458.78;2618095;47;20053;-62
2021/09/23 04:21:55;;;;;;;11.18;5.40;;;;;;;8.18;73.96;99460.59;2617906;54;20070;-62
2021/09/23 04:24:27;;;;;;;8.27;5.00;;;;;;;8.19;73.56;99456.97;2617466;47;20167;-62
2021/09/23 04:26:57;;;;;;;7.78;4.60;;;;;;;8.21;73.91;99445.47;2617508;47;20034;-62
2021/09/23 04:29:27;;;;;;;7.72;5.00;;;;;;;8.21;73.43;99437.56;2617903;47;20049;-62
2021/09/23 04:31:57;;;;;;;5.00;4.50;;;;;;;8.21;73.53;99438.38;2617797;54;20026;-63
2021/09/23 04:34:30;;;;;;;6.88;5.10;;;;;;;8.22;73.65;99440.03;2617475;47;20041;-62
2021/09/23 04:37:00;;;;;;;5.53;4.47;;;;;;;8.23;73.39;99431.13;2617761;54;20118;-63
2021/09/23 04:39:36;;;;;;;7.50;4.85;;;;;;;8.26;73.40;99430.00;2617932;47;20081;-63
2021/09/23 04:42:06;;;;;;;10.25;5.20;;;;;;;8.26;72.93;99430.81;2618457;39;20791;-63
2021/09/23 04:44:39;;;;;;;7.57;6.13;;;;;;;8.12;73.28;99426.16;2617574;47;20034;-63
2021/09/23 04:47:09;;;;;;;7.40;6.03;;;;;;;8.05;73.42;99428.63;2617572;47;20556;-63
2021/09/23 04:49:44;;;;;;;6.60;5.03;;;;;;;8.03;73.48;99425.31;2617608;47;20042;-63
2021/09/23 04:52:14;;;;;;;9.55;5.22;;;;;;;8.04;73.39;99420.88;2618175;54;20050;-63
2021/09/23 04:54:46;;;;;;;7.90;5.95;;;;;;;8.00;73.38;99432.72;2617500;47;20074;-63
2021/09/23 04:57:16;;;;;;;9.68;5.20;;;;;;;8.00;73.50;99425.66;2617804;54;20030;-63
2021/09/23 04:59:47;;;;;;;8.73;4.95;;;;;;;8.02;73.25;99422.88;2617875;47;20065;-63
2021/09/23 05:02:17;;;;;;;5.55;4.85;;;;;;;8.03;73.71;99425.31;2618272;39;20434;-63
2021/09/23 05:04:48;;;;;;;6.75;5.10;;;;;;;8.00;73.49;99425.66;2617403;54;20030;-63
2021/09/23 05:07:18;;;;;;;8.02;6.00;;;;;;;8.01;73.76;99419.41;2617531;54;20046;-63
2021/09/23 05:09:51;;;;;;;9.18;6.20;;;;;;;8.03;73.61;99417.44;2617396;54;20026;-63
2021/09/23 05:12:22;;;;;;;6.18;5.10;;;;;;;8.07;73.15;99417.94;2617850;39;20410;-63
2021/09/23 05:14:53;;;;;;;6.72;5.18;;;;;;;8.05;73.34;99417.28;2617140;54;20038;-64
2021/09/23 05:17:23;;;;;;;10.88;5.70;;;;;;;8.03;73.19;99420.06;2617970;54;20585;-63
2021/09/23 05:19:52;;;;;;;6.32;5.10;;;;;;;8.04;73.51;99419.09;2617902;54;20126;-64
2021/09/23 05:22:26;;;;;;;7.28;4.88;;;;;;;7.96;73.27;99429.59;2617430;54;20122;-63
2021/09/23 05:24:58;;;;;;;;;;;;;;;7.85;73.02;99433.34;2617764;54;20022;-63
2021/09/23 05:27:29;;;;;;;6.10;4.80;;;;;;;7.79;73.37;99436.59;2617874;54;19945;-63
2021/09/23 05:30:00;;;;;;;7.70;5.35;;;;;;;7.74;73.58;99441.53;2618457;39;20476;-63
2021/09/23 05:32:29;;;;;;;6.80;5.22;;;;;;;7.70;73.69;99442.81;2618258;54;20049;-64
2021/09/23 05:35:00;;;;;;;6.20;5.07;;;;;;;7.66;73.58;99450.22;2617918;54;20034;-64
2021/09/23 05:37:29;;;;;;;7.20;5.45;;;;;;;7.60;73.38;99464.00;2617876;49;20050;-63
2021/09/23 05:40:02;;;;;;;5.75;4.85;;;;;;;7.63;74.01;99457.59;2618247;54;20030;-63
2021/09/23 05:42:31;;;;;;;8.18;5.63;;;;;;;7.61;73.85;99456.94;2618779;39;20413;-63
2021/09/23 05:45:02;;;;;;;7.75;5.07;;;;;;;7.62;73.93;99458.59;2617601;54;20030;-63
2021/09/23 05:47:32;;;;;;;8.73;6.25;;;;;;;7.73;73.69;99447.78;2618190;54;20049;-63
2021/09/23 05:50:01;;;;;;;8.40;5.47;;;;;;;7.79;73.71;99447.13;2619148;39;20453;-63
2021/09/23 05:52:31;;;;;;;8.18;5.88;;;;;;;7.87;73.96;99435.81;2618329;54;20027;-63
2021/09/23 05:55:04;;;;;;;9.13;6.88;;;;;;;8.00;73.60;99430.94;2617684;54;20549;-63
2021/09/23 05:57:37;;;;;;;12.63;6.97;;;;;;;8.12;73.49;99431.44;2618666;39;20433;-63
2021/09/23 06:00:10;;;;;;;11.63;7.40;;;;;;;8.18;72.98;99428.16;2617494;47;20052;-63
2021/09/23 06:02:46;;;;;;;10.13;7.25;;;;;;;8.22;72.98;99431.31;2618205;54;20037;-63
2021/09/23 06:05:18;;;;;;;13.60;5.95;;;;;;;8.24;72.93;99443.31;2617481;54;20558;-63
2021/09/23 06:07:48;;;;;;;14.57;8.43;;;;;;;8.09;73.15;99456.31;2618608;39;20410;-63
2021/09/23 06:10:20;;;;;;;11.38;6.47;;;;;;;8.10;73.14;99443.94;2618173;54;20027;-63
2021/09/23 06:12:51;;;;;;;13.27;5.45;;;;;;;8.23;73.82;99446.13;2618215;54;20023;-63
2021/09/23 06:15:21;;;;;;;12.88;6.90;;;;;;;8.38;73.55;99434.81;2617842;54;20029;-63
2021/09/23 06:17:50;;;;;;;8.93;5.88;;;;;;;8.55;72.61;99437.47;2618402;39;20442;-63
2021/09/23 06:20:21;;;;;;;11.60;6.25;;;;;;;8.71;72.77;99437.47;2618028;54;20023;-63
2021/09/23 06:22:55;;;;;;;7.93;5.32;;;;;;;8.79;72.15;99434.84;2617237;49;20037;-63
2021/09/23 06:25:28;;;;;;;9.70;6.40;;;;;;;8.86;72.24;99437.63;2617638;54;20034;-63
2021/09/23 06:27:57;;;;;;;9.70;5.90;;;;;;;8.88;71.95;99425.91;2618106;54;20030;-63
2021/09/23 06:30:27;;;;;;;14.45;6.25;;;;;;;8.91;72.18;99428.22;2618086;54;20038;-63
2021/09/23 06:32:57;;;;;;;11.50;6.10;;;;;;;8.96;71.94;99421.63;2618380;39;20452;-63
2021/09/23 06:35:28;;;;;;;15.32;6.40;;;;;;;9.01;72.08;99425.41;2617011;47;20030;-63
2021/09/23 06:37:57;;;;;;;13.40;6.00;;;;;;;9.09;71.84;99419.28;2617343;47;20105;-63
2021/09/23 06:40:30;;;;;;;17.13;6.32;;;;;;;9.13;71.89;99431.16;2618465;54;20057;-63
2021/09/23 06:43:00;;;;;;;15.35;6.82;;;;;;;9.14;71.59;99428.38;2618229;47;20039;-63
2021/09/23 06:45:29;;;;;;;9.75;6.47;;;;;;;9.13;71.80;99423.25;2618674;54;20030;-63
2021/09/23 06:47:59;;;;;;;11.65;7.20;;;;;;;9.22;71.76;99416.13;2618254;47;20093;-63
2021/09/23 06:50:29;;;;;;;9.50;6.07;;;;;;;9.24;72.13;99428.19;2618184;54;20035;-63
2021/09/23 06:52:59;;;;;;;14.15;6.72;;;;;;;9.26;71.84;99434.09;2618957;54;20031;-63
2021/09/23 06:55:33;;;;;;;12.10;7.20;;;;;;;9.27;71.81;99453.41;2618417;54;20041;-63
2021/09/23 06:58:02;;;;;;;10.20;7.20;;;;;;;9.31;72.05;99445.00;2618809;54;20026;-63
2021/09/23 07:00:51;;;;;;;14.48;7.75;;;;;;;9.26;72.67;99457.00;2618822;54;20142;-63
2021/09/23 07:03:41;;;;;;;11.55;8.05;;;;;;;9.33;72.51;99456.19;2617585;54;20150;-63
2021/09/23 07:06:25;;;;;;;10.57;7.43;;;;;;;9.29;72.62;99457.50;2618097;52;20057;-63
2021/09/23 07:08:54;;;;;;;10.90;7.55;;;;;;;9.32;72.84;99454.53;2618406;54;20107;-63
2021/09/23 07:11:30;;;;;;;10.35;7.55;;;;;;;9.41;73.18;99453.53;2618123;54;20527;-63
2021/09/23 07:14:00;;;;;;;13.38;8.88;;;;;;;9.50;72.77;99462.22;2617957;46;20054;-63
2021/09/23 07:16:30;;;;;;;12.88;7.93;;;;;;;9.55;72.75;99459.94;2618712;54;20147;-63
2021/09/23 07:19:00;;;;;;;12.00;7.57;;;;;;;9.63;73.15;99453.78;2617980;54;20035;-63
2021/09/23 07:21:45;;;;;;;17.75;9.48;;;;;;;9.79;72.80;99456.34;2618664;54;20043;-63
2021/09/23 07:24:15;;;;;;;13.88;8.85;;;;;;;9.81;72.52;99466.75;2618262;54;20573;-63
2021/09/23 07:26:49;;;;;;;10.65;6.97;;;;;;;9.75;72.92;99464.78;2618818;39;20425;-63
2021/09/23 07:29:20;;;;;;;18.00;8.57;;;;;;;9.84;72.97;99461.97;2618099;54;20041;-63
2021/09/23 07:31:49;;;;;;;10.55;8.60;;;;;;;9.99;72.61;99464.69;2618625;39;20422;-63
2021/09/23 07:34:19;;;;;;;12.60;8.77;;;;;;;10.05;72.93;99466.66;2617221;47;20038;-63
2021/09/23 07:36:49;;;;;;;13.95;9.77;;;;;;;10.17;72.46;99465.25;2618217;54;20031;-63
2021/09/23 07:39:19;;;;;;;12.38;8.60;;;;;;;10.24;72.98;99452.16;2618229;54;20019;-63
2021/09/23 07:41:52;;;;;;;14.18;8.40;;;;;;;10.43;72.86;99458.03;2618734;54;20533;-63
2021/09/23 07:44:23;;;;;;;15.00;10.18;;;;;;;10.57;72.31;99454.63;2618423;54;20030;-63
2021/09/23 07:46:55;;;;;;;15.68;10.02;;;;;;;10.67;72.49;99460.50;2617860;54;20080;-63
2021/09/23 07:49:24;;;;;;;11.50;8.98;;;;;;;10.76;72.53;99461.25;2617981;47;20030;-63
2021/09/23 07:51:55;;;;;;;13.57;10.15;;;;;;;10.90;72.40;99463.97;2618370;54;20546;-63
2021/09/23 07:54:25;;;;;;;11.80;8.88;;;;;;;11.02;72.62;99455.56;2618145;54;20030;-62
2021/09/23 07:56:57;;;;;;;14.40;9.13;;;;;;;11.16;71.95;99445.03;2618461;54;20059;-63
2021/09/23 07:59:28;;;;;;;15.80;10.25;;;;;;;11.29;71.90;99436.47;2618360;47;20023;-62
2021/09/23 08:01:58;;;;;;;13.18;10.05;;;;;;;11.45;71.62;99437.28;2618328;47;20035;-62
2021/09/23 09:42:43;;;;;;;7.38;4.35;;;;;;;15.85;63.82;99351.22;2612707;46;20034;-68
2021/09/23 09:45:19;;;;;;;5.57;4.43;;;;;;;16.04;62.91;99349.50;2622599;47;20035;-67
2021/09/23 09:47:56;;;;;;;8.82;4.68;;;;;;;16.24;61.91;99348.53;2622468;47;20075;-68
2021/09/23 09:50:27;;;;;;;9.10;4.53;;;;;;;16.32;61.66;99343.75;2621975;50;20085;-67
2021/09/23 09:53:01;;;;;;;8.60;4.50;;;;;;;16.38;61.76;99333.25;2623296;31;20565;-68
2021/09/23 09:55:32;;;;;;;5.00;4.50;;;;;;;16.47;61.34;99337.28;2621113;54;20022;-68
2021/09/23 09:58:06;;;;;;;7.55;4.53;;;;;;;16.65;60.86;99334.66;2622164;47;20037;-68
2021/09/23 10:00:37;;;;;;;9.52;4.70;;;;;;;16.83;60.70;99324.06;2622041;54;20053;-68
2021/09/23 10:03:08;;;;;;;4.80;4.15;;;;;;;16.98;60.27;99325.53;2622090;54;20041;-67
2021/09/23 10:05:41;;;;;;;;;;;;;;;17.13;60.15;99322.53;2622361;47;20073;-68
2021/09/23 10:08:12;;;;;;;7.40;3.90;;;;;;;17.13;59.25;99323.34;2622234;47;19949;-68
2021/09/23 10:10:44;;;;;;;7.60;4.00;;;;;;;17.28;58.89;99321.13;2622154;47;20034;-67
2021/09/23 10:13:18;;;;;;;9.13;3.83;;;;;;;17.39;58.65;99308.03;2621512;54;20048;-68
2021/09/23 10:15:48;;;;;;;4.43;3.47;;;;;;;17.44;58.21;99308.19;2622550;54;20034;-67
2021/09/23 10:18:19;;;;;;;5.00;3.95;;;;;;;17.44;58.38;99309.00;2623442;54;20041;-67
2021/09/23 10:20:53;;;;;;;7.28;4.15;;;;;;;17.52;58.01;99299.88;2622884;39;20431;-68
2021/09/23 10:23:27;;;;;;;6.75;3.97;;;;;;;17.66;58.14;99301.31;2621384;54;20534;-68
2021/09/23 10:25:59;;;;;;;6.60;3.65;;;;;;;17.76;57.51;99301.63;2620916;47;20026;-68
2021/09/23 10:28:33;;;;;;;4.57;3.50;;;;;;;17.88;57.86;99295.47;2621943;54;20037;-68
2021/09/23 10:31:04;;;;;;;;;;;;;;;18.02;57.32;99291.56;2622338;54;20549;-68
2021/09/23 10:33:35;;;;;;;8.32;3.67;;;;;;;18.09;57.01;99286.94;2623189;54;20421;-68
2021/09/23 10:36:05;;;;;;;4.82;3.22;;;;;;;18.22;55.66;99283.25;2622639;47;20046;-68
2021/09/23 10:38:38;;;;;;;4.85;3.17;;;;;;;18.28;54.92;99280.44;2622640;47;20082;-68
2021/09/23 10:41:09;;;;;;;4.03;3.05;;;;;;;18.35;54.34;99271.50;2622990;39;20445;-68
2021/09/23 10:43:42;;;;;;;3.58;2.70;;;;;;;18.45;53.92;99280.59;2621923;47;20034;-68
2021/09/23 10:46:13;;;;;;;12.80;2.97;;;;;;;18.63;53.54;99285.03;2622544;47;20625;-68
2021/09/23 10:48:49;;;;;;;2.90;2.65;;;;;;;18.73;52.87;99281.78;2621401;54;20081;-69
2021/09/23 10:51:21;;;;;;;3.13;2.80;;;;;;;18.74;51.54;99278.06;2622417;47;20553;-67
2021/09/23 10:54:03;;;;;;;4.10;2.80;;;;;;;18.75;51.10;99269.78;2622008;47;20038;-68
2021/09/23 10:56:36;;;;;;;4.60;3.13;;;;;;;18.82;50.87;99264.31;2621927;54;20026;-68
2021/09/23 10:59:08;;;;;;;5.35;2.70;;;;;;;18.90;50.52;99268.47;2621555;54;20043;-69
2021/09/23 11:01:43;;;;;;;3.58;2.70;;;;;;;18.93;50.38;99262.66;2621547;47;20030;-69
2021/09/23 11:04:37;;;;;;;6.55;4.07;;;;;;;19.01;50.05;99265.78;2621314;47;20030;-69
2021/09/23 11:07:09;;;;;;;5.10;3.72;;;;;;;19.03;50.08;99265.56;2621426;51;20030;-69
2021/09/23 11:09:39;;;;;;;4.18;3.08;;;;;;;19.08;50.29;99264.84;2622211;54;20046;-69
2021/09/23 11:12:11;;;;;;;5.75;3.45;;;;;;;19.14;49.56;99251.31;2622531;46;20035;-68
2021/09/23 11:14:50;;;;;;;3.20;2.90;;;;;;;19.27;49.87;99243.00;2622886;46;20526;-69
2021/09/23 11:17:22;;;;;;;3.47;3.17;;;;;;;19.37;49.54;99230.84;2623234;54;20086;-68
2021/09/23 11:19:59;;;;;;;2.97;2.63;;;;;;;19.47;49.43;99226.50;2622858;47;20086;-68
2021/09/23 11:22:35;;;;;;;5.75;2.95;;;;;;;19.55;49.33;99233.31;2622518;54;20066;-69
2021/09/23 11:25:10;;;;;;;4.30;3.38;;;;;;;19.62;49.42;99234.03;2621465;47;20053;-69
2021/09/23 11:27:41;;;;;;;;;;;;;;;19.61;49.38;99232.41;2622214;47;20038;-69
2021/09/23 11:30:16;;;;;;;7.10;3.88;;;;;;;19.63;49.36;99234.84;2620330;47;19942;-69
2021/09/23 11:32:51;;;;;;;4.20;3.53;;;;;;;19.72;49.15;99228.84;2620238;47;20031;-69
2021/09/23 11:35:22;;;;;;;5.05;3.38;;;;;;;19.88;49.11;99224.56;2620827;39;20426;-70
2021/09/23 11:37:53;;;;;;;4.28;3.42;;;;;;;20.01;48.95;99208.13;2620153;47;20038;-68
2021/09/23 11:40:26;;;;;;;3.63;3.33;;;;;;;20.11;48.50;99207.47;2619698;39;20712;-68
2021/09/23 11:42:58;;;;;;;6.50;3.20;;;;;;;20.15;48.58;99195.19;2619546;54;20038;-69
2021/09/23 11:45:33;;;;;;;2.83;2.63;;;;;;;20.21;48.17;99191.53;2619636;39;20809;-69
2021/09/23 11:48:07;;;;;;;3.05;2.75;;;;;;;20.21;48.82;99193.41;2620049;54;20046;-68
2021/09/23 11:50:40;;;;;;;5.47;3.33;;;;;;;20.24;48.26;99192.91;2619388;47;20601;-69
2021/09/23 11:53:12;;;;;;;5.17;3.40;;;;;;;20.35;48.68;99188.50;2619966;47;20026;-68
2021/09/23 11:55:59;;;;;;;4.35;2.78;;;;;;;20.34;47.92;99185.00;2620335;46;20029;-69
2021/09/23 11:58:38;;;;;;;4.65;3.35;;;;;;;20.48;47.78;99189.00;2620521;39;20449;-69
2021/09/23 12:01:12;;;;;;;3.38;2.80;;;;;;;20.57;47.45;99188.56;2619843;54;20034;-68
2021/09/23 12:03:46;;;;;;;6.57;3.03;;;;;;;20.64;47.60;99181.94;2619728;54;20030;-69
2021/09/23 12:06:18;;;;;;;4.53;2.90;;;;;;;20.68;47.58;99176.91;2620184;54;20151;-69
2021/09/23 12:09:09;;;;;;;3.20;2.92;;;;;;;20.81;47.17;99173.03;2620071;47;20146;-69
2021/09/23 12:11:40;;;;;;;6.22;5.13;;;;;;;20.87;46.55;99175.53;2620005;54;20041;-69
2021/09/23 12:14:21;;;;;;;4.22;2.92;;;;;;;20.92;46.58;99177.47;2620021;54;20034;-69
2021/09/23 12:17:02;;;;;;;3.78;3.38;;;;;;;21.00;46.75;99177.03;2619449;54;20146;-68
2021/09/23 12:19:34;;;;;;;2.88;2.58;;;;;;;20.97;44.93;99177.50;2620522;47;20034;-68
2021/09/23 12:22:06;;;;;;;3.38;3.08;;;;;;;20.99;44.66;99175.41;2620343;54;20078;-68
2021/09/23 12:24:43;;;;;;;11.23;2.90;;;;;;;21.06;44.78;99167.13;2619594;46;20629;-68
2021/09/23 12:27:28;;;;;;;4.95;2.72;;;;;;;21.12;44.54;99168.81;2618658;47;20594;-68
2021/09/23 12:30:00;;;;;;;3.58;3.00;;;;;;;21.17;44.89;99158.13;2620076;47;20027;-68
2021/09/23 12:32:45;;;;;;;5.47;3.88;;;;;;;21.19;44.04;99156.00;2620161;54;20037;-68
2021/09/23 12:35:20;;;;;;;4.73;3.07;;;;;;;21.21;44.53;99148.47;2619675;54;20030;-69
2021/09/23 12:37:57;;;;;;;3.08;2.70;;;;;;;21.27;44.22;99144.78;2619231;54;20033;-69
2021/09/23 12:40:47;;;;;;;4.20;3.20;;;;;;;21.31;44.39;99143.22;2619676;54;20035;-69
2021/09/23 12:43:17;;;;;;;2.92;2.70;;;;;;;21.38;43.75;99133.06;2619593;46;20037;-69
2021/09/23 12:46:12;;;;;;;4.80;3.22;;;;;;;21.48;43.72;99130.50;2619699;47;20022;-69
2021/09/23 12:48:48;;;;;;;3.55;2.88;;;;;;;21.45;43.55;99125.63;2619570;47;20023;-70
2021/09/23 12:51:36;;;;;;;4.88;3.15;;;;;;;21.46;43.37;99124.53;2619701;54;20022;-69
2021/09/23 12:54:23;;;;;;;3.13;2.83;;;;;;;21.51;43.88;99123.78;2619399;47;20073;-69
2021/09/23 12:57:06;;;;;;;4.25;3.60;;;;;;;21.54;43.80;99125.97;2620639;39;20430;-70
2021/09/23 12:59:36;;;;;;;6.45;3.70;;;;;;;21.62;43.63;99119.31;2619741;54;20027;-69
2021/09/23 13:02:11;;;;;;;4.18;2.50;;;;;;;21.67;43.55;99114.75;2620091;47;20538;-68
2021/09/23 13:04:44;;;;;;;3.75;2.85;;;;;;;21.70;43.42;99122.31;2619708;47;20030;-69
2021/09/23 13:07:21;;;;;;;3.47;2.97;;;;;;;21.85;43.45;99120.81;2620048;47;20030;-69
2021/09/23 13:10:02;;;;;;;3.80;3.13;;;;;;;21.86;43.23;99120.56;2619374;54;20026;-68
2021/09/23 13:12:38;;;;;;;2.78;2.58;;;;;;;21.78;42.36;99121.03;2620804;54;20034;-69
2021/09/23 13:15:28;;;;;;;4.63;3.63;;;;;;;21.81;42.89;99112.47;2619558;47;20027;-69
2021/09/23 13:18:02;;;;;;;4.35;3.03;;;;;;;21.91;42.78;99104.44;2620022;47;20030;-70
2021/09/23 13:20:37;;;;;;;3.47;3.10;;;;;;;22.01;42.43;99112.59;2619609;47;20560;-70
2021/09/23 13:23:29;;;;;;;2.85;2.60;;;;;;;22.13;41.77;99100.84;2619247;54;20142;-69
2021/09/23 13:26:00;;;;;;;4.10;2.97;;;;;;;22.11;41.22;99098.38;2619033;47;20114;-69
2021/09/23 13:28:40;;;;;;;3.60;2.67;;;;;;;22.08;41.70;99096.19;2619670;54;20558;-71
2021/09/23 13:31:12;;;;;;;3.63;3.15;;;;;;;22.17;41.83;99094.69;2618878;47;20034;-69
2021/09/23 13:33:45;;;;;;;3.95;3.30;;;;;;;22.24;42.34;99084.47;2618977;54;20065;-69
2021/09/23 13:36:19;;;;;;;7.05;3.25;;;;;;;22.35;42.33;99084.53;2619578;54;20118;-68
2021/09/23 13:38:49;;;;;;;5.03;3.20;;;;;;;22.33;41.47;99078.59;2618919;47;20560;-69
2021/09/23 13:41:41;;;;;;;4.88;2.75;;;;;;;22.25;42.29;99075.34;2618063;47;20038;-68
2021/09/23 13:44:49;;;;;;;9.93;3.28;;;;;;;22.30;42.51;99071.06;2618026;47;20038;-69